sensor_id;sensor_type;location;lat;lon;timestamp;P1;durP1;ratioP1;P2;durP2;ratioP2
81908;SDS011;71372;43.514;1.512;2023-12-22T00:00:01;21.33;;;2.83;;
81908;SDS011;71372;43.514;1.512;2023-12-22T00:02:28;16.05;;;3.00;;
81908;SDS011;71372;43.514;1.512;2023-12-22T00:04:54;16.63;;;2.65;;
81908;SDS011;71372;43.514;1.512;2023-12-22T00:07:20;23.85;;;3.20;;
81908;SDS011;71372;43.514;1.512;2023-12-22T00:09:46;23.52;;;3.05;;
81908;SDS011;71372;43.514;1.512;2023-12-22T00:12:12;24.90;;;3.30;;
81908;SDS011;71372;43.514;1.512;2023-12-22T00:14:37;13.95;;;2.30;;
81908;SDS011;71372;43.514;1.512;2023-12-22T00:19:31;25.35;;;3.08;;
81908;SDS011;71372;43.514;1.512;2023-12-22T00:21:57;15.70;;;2.58;;
81908;SDS011;71372;43.514;1.512;2023-12-22T00:24:24;22.75;;;2.90;;
81908;SDS011;71372;43.514;1.512;2023-12-22T00:26:50;22.83;;;3.60;;
81908;SDS011;71372;43.514;1.512;2023-12-22T00:29:15;15.30;;;3.28;;
81908;SDS011;71372;43.514;1.512;2023-12-22T00:31:41;21.70;;;2.78;;
81908;SDS011;71372;43.514;1.512;2023-12-22T00:34:07;18.27;;;1.80;;
81908;SDS011;71372;43.514;1.512;2023-12-22T00:36:33;18.83;;;2.78;;
81908;SDS011;71372;43.514;1.512;2023-12-22T00:38:59;17.60;;;2.45;;
81908;SDS011;71372;43.514;1.512;2023-12-22T00:41:25;19.67;;;2.75;;
81908;SDS011;71372;43.514;1.512;2023-12-22T00:43:51;16.80;;;3.25;;
81908;SDS011;71372;43.514;1.512;2023-12-22T00:46:17;19.98;;;2.53;;
81908;SDS011;71372;43.514;1.512;2023-12-22T00:48:43;23.48;;;3.42;;
81908;SDS011;71372;43.514;1.512;2023-12-22T00:51:09;20.05;;;2.40;;
81908;SDS011;71372;43.514;1.512;2023-12-22T00:53:35;12.82;;;2.10;;
81908;SDS011;71372;43.514;1.512;2023-12-22T00:56:01;16.83;;;2.17;;
81908;SDS011;71372;43.514;1.512;2023-12-22T00:58:29;16.00;;;2.20;;
81908;SDS011;71372;43.514;1.512;2023-12-22T01:00:55;11.52;;;1.70;;
81908;SDS011;71372;43.514;1.512;2023-12-22T01:03:21;9.48;;;2.53;;
81908;SDS011;71372;43.514;1.512;2023-12-22T01:05:47;15.18;;;2.20;;
81908;SDS011;71372;43.514;1.512;2023-12-22T01:08:13;16.20;;;1.90;;
81908;SDS011;71372;43.514;1.512;2023-12-22T01:10:39;11.80;;;1.95;;
81908;SDS011;71372;43.514;1.512;2023-12-22T01:13:05;8.85;;;1.40;;
81908;SDS011;71372;43.514;1.512;2023-12-22T01:15:31;13.27;;;2.42;;
81908;SDS011;71372;43.514;1.512;2023-12-22T01:17:57;7.93;;;1.50;;
81908;SDS011;71372;43.514;1.512;2023-12-22T01:20:23;15.70;;;1.73;;
81908;SDS011;71372;43.514;1.512;2023-12-22T01:22:49;16.20;;;2.85;;
81908;SDS011;71372;43.514;1.512;2023-12-22T01:25:15;15.52;;;1.63;;
81908;SDS011;71372;43.514;1.512;2023-12-22T01:27:41;10.38;;;2.38;;
81908;SDS011;71372;43.514;1.512;2023-12-22T01:30:07;10.60;;;1.33;;
81908;SDS011;71372;43.514;1.512;2023-12-22T01:32:33;11.60;;;1.70;;
81908;SDS011;71372;43.514;1.512;2023-12-22T01:35:02;10.70;;;1.65;;
81908;SDS011;71372;43.514;1.512;2023-12-22T01:37:32;10.02;;;1.45;;
81908;SDS011;71372;43.514;1.512;2023-12-22T01:39:58;12.60;;;1.75;;
81908;SDS011;71372;43.514;1.512;2023-12-22T01:42:24;5.72;;;1.30;;
81908;SDS011;71372;43.514;1.512;2023-12-22T01:44:50;15.30;;;1.98;;
81908;SDS011;71372;43.514;1.512;2023-12-22T01:47:16;13.35;;;1.98;;
81908;SDS011;71372;43.514;1.512;2023-12-22T01:49:42;12.32;;;1.63;;
81908;SDS011;71372;43.514;1.512;2023-12-22T01:52:08;13.00;;;1.30;;
81908;SDS011;71372;43.514;1.512;2023-12-22T01:54:35;7.05;;;1.15;;
81908;SDS011;71372;43.514;1.512;2023-12-22T01:57:01;8.90;;;1.10;;
81908;SDS011;71372;43.514;1.512;2023-12-22T01:59:28;9.52;;;1.15;;
81908;SDS011;71372;43.514;1.512;2023-12-22T02:01:56;11.82;;;1.63;;
81908;SDS011;71372;43.514;1.512;2023-12-22T02:04:22;16.85;;;1.85;;
81908;SDS011;71372;43.514;1.512;2023-12-22T02:06:49;16.25;;;2.20;;
81908;SDS011;71372;43.514;1.512;2023-12-22T02:09:16;10.65;;;1.45;;
81908;SDS011;71372;43.514;1.512;2023-12-22T02:11:42;15.18;;;1.65;;
81908;SDS011;71372;43.514;1.512;2023-12-22T02:14:08;8.60;;;1.63;;
81908;SDS011;71372;43.514;1.512;2023-12-22T02:22:07;6.05;;;1.10;;
81908;SDS011;71372;43.514;1.512;2023-12-22T02:24:34;9.88;;;1.20;;
81908;SDS011;71372;43.514;1.512;2023-12-22T02:27:04;5.70;;;0.95;;
81908;SDS011;71372;43.514;1.512;2023-12-22T02:29:37;7.15;;;0.90;;
81908;SDS011;71372;43.514;1.512;2023-12-22T02:32:10;5.78;;;0.85;;
81908;SDS011;71372;43.514;1.512;2023-12-22T02:34:42;7.65;;;0.80;;
81908;SDS011;71372;43.514;1.512;2023-12-22T02:37:10;3.42;;;0.55;;
81908;SDS011;71372;43.514;1.512;2023-12-22T02:39:36;6.05;;;0.90;;
81908;SDS011;71372;43.514;1.512;2023-12-22T02:42:03;8.98;;;1.00;;
81908;SDS011;71372;43.514;1.512;2023-12-22T02:44:31;7.55;;;1.05;;
81908;SDS011;71372;43.514;1.512;2023-12-22T02:46:57;9.73;;;1.48;;
81908;SDS011;71372;43.514;1.512;2023-12-22T02:49:23;7.55;;;1.10;;
81908;SDS011;71372;43.514;1.512;2023-12-22T02:51:49;6.45;;;0.80;;
81908;SDS011;71372;43.514;1.512;2023-12-22T02:54:15;4.95;;;0.73;;
81908;SDS011;71372;43.514;1.512;2023-12-22T02:56:41;5.20;;;0.70;;
81908;SDS011;71372;43.514;1.512;2023-12-22T02:59:08;4.80;;;0.80;;
81908;SDS011;71372;43.514;1.512;2023-12-22T03:01:35;3.17;;;0.40;;
81908;SDS011;71372;43.514;1.512;2023-12-22T03:04:01;2.30;;;0.57;;
81908;SDS011;71372;43.514;1.512;2023-12-22T03:06:27;4.18;;;0.80;;
81908;SDS011;71372;43.514;1.512;2023-12-22T03:08:52;4.72;;;0.80;;
81908;SDS011;71372;43.514;1.512;2023-12-22T03:11:18;1.77;;;0.55;;
81908;SDS011;71372;43.514;1.512;2023-12-22T03:13:44;1.58;;;0.50;;
81908;SDS011;71372;43.514;1.512;2023-12-22T03:16:10;2.40;;;0.52;;
81908;SDS011;71372;43.514;1.512;2023-12-22T03:18:39;1.63;;;0.47;;
81908;SDS011;71372;43.514;1.512;2023-12-22T03:21:05;1.27;;;0.20;;
81908;SDS011;71372;43.514;1.512;2023-12-22T03:23:31;1.20;;;0.38;;
81908;SDS011;71372;43.514;1.512;2023-12-22T03:25:57;4.70;;;0.43;;
81908;SDS011;71372;43.514;1.512;2023-12-22T03:28:23;2.72;;;0.45;;
81908;SDS011;71372;43.514;1.512;2023-12-22T03:30:49;1.65;;;0.38;;
81908;SDS011;71372;43.514;1.512;2023-12-22T03:33:15;3.60;;;0.75;;
81908;SDS011;71372;43.514;1.512;2023-12-22T03:35:41;3.58;;;0.50;;
81908;SDS011;71372;43.514;1.512;2023-12-22T03:38:07;2.35;;;0.40;;
81908;SDS011;71372;43.514;1.512;2023-12-22T03:40:32;1.83;;;0.60;;
81908;SDS011;71372;43.514;1.512;2023-12-22T03:42:59;3.53;;;0.50;;
81908;SDS011;71372;43.514;1.512;2023-12-22T03:45:25;4.55;;;0.65;;
81908;SDS011;71372;43.514;1.512;2023-12-22T03:47:51;2.63;;;0.50;;
81908;SDS011;71372;43.514;1.512;2023-12-22T03:50:17;2.13;;;0.70;;
81908;SDS011;71372;43.514;1.512;2023-12-22T03:52:43;1.27;;;0.25;;
81908;SDS011;71372;43.514;1.512;2023-12-22T03:55:09;2.35;;;0.68;;
81908;SDS011;71372;43.514;1.512;2023-12-22T03:57:35;1.10;;;0.43;;
81908;SDS011;71372;43.514;1.512;2023-12-22T04:00:01;2.58;;;0.70;;
81908;SDS011;71372;43.514;1.512;2023-12-22T04:02:27;4.63;;;0.57;;
81908;SDS011;71372;43.514;1.512;2023-12-22T04:04:53;3.47;;;0.57;;
81908;SDS011;71372;43.514;1.512;2023-12-22T04:07:19;4.18;;;0.65;;
81908;SDS011;71372;43.514;1.512;2023-12-22T04:09:45;4.93;;;0.43;;
81908;SDS011;71372;43.514;1.512;2023-12-22T04:12:11;2.22;;;0.50;;
81908;SDS011;71372;43.514;1.512;2023-12-22T04:14:37;1.75;;;0.57;;
81908;SDS011;71372;43.514;1.512;2023-12-22T04:17:03;2.28;;;0.60;;
81908;SDS011;71372;43.514;1.512;2023-12-22T04:19:29;3.35;;;0.30;;
81908;SDS011;71372;43.514;1.512;2023-12-22T04:21:55;2.78;;;0.30;;
81908;SDS011;71372;43.514;1.512;2023-12-22T04:24:21;2.38;;;0.30;;
81908;SDS011;71372;43.514;1.512;2023-12-22T04:26:46;2.72;;;0.47;;
81908;SDS011;71372;43.514;1.512;2023-12-22T04:29:13;0.55;;;0.20;;
81908;SDS011;71372;43.514;1.512;2023-12-22T04:31:39;2.83;;;0.30;;
81908;SDS011;71372;43.514;1.512;2023-12-22T04:34:05;0.65;;;0.20;;
81908;SDS011;71372;43.514;1.512;2023-12-22T04:36:31;0.40;;;0.20;;
81908;SDS011;71372;43.514;1.512;2023-12-22T04:38:57;0.50;;;0.30;;
81908;SDS011;71372;43.514;1.512;2023-12-22T04:41:23;1.00;;;0.25;;
81908;SDS011;71372;43.514;1.512;2023-12-22T04:43:49;0.32;;;0.20;;
81908;SDS011;71372;43.514;1.512;2023-12-22T04:46:15;1.73;;;0.20;;
81908;SDS011;71372;43.514;1.512;2023-12-22T04:48:41;1.20;;;0.25;;
81908;SDS011;71372;43.514;1.512;2023-12-22T04:51:07;0.28;;;0.20;;
81908;SDS011;71372;43.514;1.512;2023-12-22T04:53:33;0.75;;;0.30;;
81908;SDS011;71372;43.514;1.512;2023-12-22T04:55:58;0.68;;;0.13;;
81908;SDS011;71372;43.514;1.512;2023-12-22T04:58:24;0.10;;;0.10;;
81908;SDS011;71372;43.514;1.512;2023-12-22T05:00:50;0.10;;;0.10;;
81908;SDS011;71372;43.514;1.512;2023-12-22T05:03:16;0.20;;;0.20;;
81908;SDS011;71372;43.514;1.512;2023-12-22T05:05:42;0.10;;;0.10;;
81908;SDS011;71372;43.514;1.512;2023-12-22T05:08:08;0.10;;;0.10;;
81908;SDS011;71372;43.514;1.512;2023-12-22T05:10:34;0.13;;;0.10;;
81908;SDS011;71372;43.514;1.512;2023-12-22T05:13:00;0.40;;;0.10;;
81908;SDS011;71372;43.514;1.512;2023-12-22T05:15:26;0.40;;;0.10;;
81908;SDS011;71372;43.514;1.512;2023-12-22T05:17:52;0.73;;;0.00;;
81908;SDS011;71372;43.514;1.512;2023-12-22T05:20:18;0.40;;;0.10;;
81908;SDS011;71372;43.514;1.512;2023-12-22T05:22:44;0.10;;;0.10;;
81908;SDS011;71372;43.514;1.512;2023-12-22T05:25:10;0.30;;;0.10;;
81908;SDS011;71372;43.514;1.512;2023-12-22T05:27:39;0.35;;;0.15;;
81908;SDS011;71372;43.514;1.512;2023-12-22T05:30:07;0.73;;;0.20;;
81908;SDS011;71372;43.514;1.512;2023-12-22T05:32:33;1.05;;;0.30;;
81908;SDS011;71372;43.514;1.512;2023-12-22T05:34:59;0.38;;;0.20;;
81908;SDS011;71372;43.514;1.512;2023-12-22T05:37:25;0.38;;;0.17;;
81908;SDS011;71372;43.514;1.512;2023-12-22T05:39:51;0.10;;;0.10;;
81908;SDS011;71372;43.514;1.512;2023-12-22T05:42:17;1.08;;;0.20;;
81908;SDS011;71372;43.514;1.512;2023-12-22T05:44:43;1.98;;;0.40;;
81908;SDS011;71372;43.514;1.512;2023-12-22T05:47:09;0.55;;;0.30;;
81908;SDS011;71372;43.514;1.512;2023-12-22T05:49:36;0.57;;;0.20;;
81908;SDS011;71372;43.514;1.512;2023-12-22T05:52:06;0.65;;;0.13;;
81908;SDS011;71372;43.514;1.512;2023-12-22T05:54:35;0.60;;;0.40;;
81908;SDS011;71372;43.514;1.512;2023-12-22T05:57:01;1.25;;;0.30;;
81908;SDS011;71372;43.514;1.512;2023-12-22T05:59:30;0.25;;;0.13;;
81908;SDS011;71372;43.514;1.512;2023-12-22T06:01:58;1.75;;;0.30;;
81908;SDS011;71372;43.514;1.512;2023-12-22T06:04:25;0.45;;;0.30;;
81908;SDS011;71372;43.514;1.512;2023-12-22T06:06:51;1.85;;;0.20;;
81908;SDS011;71372;43.514;1.512;2023-12-22T06:09:17;0.40;;;0.20;;
81908;SDS011;71372;43.514;1.512;2023-12-22T06:11:45;0.20;;;0.15;;
81908;SDS011;71372;43.514;1.512;2023-12-22T06:14:12;0.60;;;0.10;;
81908;SDS011;71372;43.514;1.512;2023-12-22T06:16:38;0.20;;;0.20;;
81908;SDS011;71372;43.514;1.512;2023-12-22T06:19:05;0.40;;;0.15;;
81908;SDS011;71372;43.514;1.512;2023-12-22T06:21:31;0.68;;;0.20;;
81908;SDS011;71372;43.514;1.512;2023-12-22T06:23:57;0.80;;;0.50;;
81908;SDS011;71372;43.514;1.512;2023-12-22T06:26:23;3.35;;;0.63;;
81908;SDS011;71372;43.514;1.512;2023-12-22T06:28:49;2.00;;;0.30;;
81908;SDS011;71372;43.514;1.512;2023-12-22T06:31:18;0.88;;;0.30;;
81908;SDS011;71372;43.514;1.512;2023-12-22T06:33:46;0.98;;;0.30;;
81908;SDS011;71372;43.514;1.512;2023-12-22T06:38:51;0.50;;;0.20;;
81908;SDS011;71372;43.514;1.512;2023-12-22T06:41:21;1.42;;;0.60;;
81908;SDS011;71372;43.514;1.512;2023-12-22T06:43:50;1.40;;;0.38;;
81908;SDS011;71372;43.514;1.512;2023-12-22T06:46:20;0.70;;;0.20;;
81908;SDS011;71372;43.514;1.512;2023-12-22T06:48:47;0.90;;;0.40;;
81908;SDS011;71372;43.514;1.512;2023-12-22T06:51:20;1.42;;;0.40;;
81908;SDS011;71372;43.514;1.512;2023-12-22T06:53:48;1.27;;;0.50;;
81908;SDS011;71372;43.514;1.512;2023-12-22T06:56:21;1.10;;;0.40;;
81908;SDS011;71372;43.514;1.512;2023-12-22T06:58:51;0.60;;;0.30;;
81908;SDS011;71372;43.514;1.512;2023-12-22T07:01:28;0.88;;;0.35;;
81908;SDS011;71372;43.514;1.512;2023-12-22T07:03:55;1.25;;;0.50;;
81908;SDS011;71372;43.514;1.512;2023-12-22T07:06:22;2.75;;;0.52;;
81908;SDS011;71372;43.514;1.512;2023-12-22T07:11:40;0.73;;;0.30;;
81908;SDS011;71372;43.514;1.512;2023-12-22T07:14:07;1.50;;;0.50;;
81908;SDS011;71372;43.514;1.512;2023-12-22T07:16:33;0.40;;;0.30;;
81908;SDS011;71372;43.514;1.512;2023-12-22T07:19:00;0.32;;;0.20;;
81908;SDS011;71372;43.514;1.512;2023-12-22T07:21:26;0.75;;;0.30;;
81908;SDS011;71372;43.514;1.512;2023-12-22T07:23:52;0.47;;;0.38;;
81908;SDS011;71372;43.514;1.512;2023-12-22T07:26:18;0.55;;;0.40;;
81908;SDS011;71372;43.514;1.512;2023-12-22T07:28:44;2.25;;;0.30;;
81908;SDS011;71372;43.514;1.512;2023-12-22T07:31:10;1.30;;;0.40;;
81908;SDS011;71372;43.514;1.512;2023-12-22T07:33:35;0.80;;;0.50;;
81908;SDS011;71372;43.514;1.512;2023-12-22T07:36:01;1.25;;;0.40;;
81908;SDS011;71372;43.514;1.512;2023-12-22T07:38:27;0.30;;;0.10;;
81908;SDS011;71372;43.514;1.512;2023-12-22T07:40:54;0.55;;;0.30;;
81908;SDS011;71372;43.514;1.512;2023-12-22T07:43:20;0.70;;;0.30;;
81908;SDS011;71372;43.514;1.512;2023-12-22T07:45:45;0.10;;;0.10;;
81908;SDS011;71372;43.514;1.512;2023-12-22T07:48:13;1.27;;;0.40;;
81908;SDS011;71372;43.514;1.512;2023-12-22T07:50:40;1.15;;;0.43;;
81908;SDS011;71372;43.514;1.512;2023-12-22T07:53:07;0.35;;;0.20;;
81908;SDS011;71372;43.514;1.512;2023-12-22T07:55:34;1.33;;;0.30;;
81908;SDS011;71372;43.514;1.512;2023-12-22T07:58:00;0.50;;;0.20;;
81908;SDS011;71372;43.514;1.512;2023-12-22T08:00:26;0.82;;;0.30;;
81908;SDS011;71372;43.514;1.512;2023-12-22T08:02:53;0.22;;;0.20;;
81908;SDS011;71372;43.514;1.512;2023-12-22T08:05:19;2.10;;;0.43;;
81908;SDS011;71372;43.514;1.512;2023-12-22T08:07:45;0.80;;;0.30;;
81908;SDS011;71372;43.514;1.512;2023-12-22T08:10:11;0.40;;;0.40;;
81908;SDS011;71372;43.514;1.512;2023-12-22T08:12:37;0.17;;;0.17;;
81908;SDS011;71372;43.514;1.512;2023-12-22T08:15:03;1.65;;;0.52;;
81908;SDS011;71372;43.514;1.512;2023-12-22T08:17:29;1.48;;;0.70;;
81908;SDS011;71372;43.514;1.512;2023-12-22T08:19:55;0.73;;;0.38;;
81908;SDS011;71372;43.514;1.512;2023-12-22T08:22:22;0.40;;;0.25;;
81908;SDS011;71372;43.514;1.512;2023-12-22T08:24:48;0.20;;;0.20;;
81908;SDS011;71372;43.514;1.512;2023-12-22T08:27:15;1.60;;;0.50;;
81908;SDS011;71372;43.514;1.512;2023-12-22T08:29:41;1.20;;;0.70;;
81908;SDS011;71372;43.514;1.512;2023-12-22T08:32:06;0.20;;;0.20;;
81908;SDS011;71372;43.514;1.512;2023-12-22T08:34:33;3.20;;;0.28;;
81908;SDS011;71372;43.514;1.512;2023-12-22T08:36:58;1.00;;;0.20;;
81908;SDS011;71372;43.514;1.512;2023-12-22T08:39:26;0.38;;;0.20;;
81908;SDS011;71372;43.514;1.512;2023-12-22T08:41:52;0.80;;;0.55;;
81908;SDS011;71372;43.514;1.512;2023-12-22T08:44:18;0.40;;;0.30;;
81908;SDS011;71372;43.514;1.512;2023-12-22T08:46:45;0.85;;;0.40;;
81908;SDS011;71372;43.514;1.512;2023-12-22T08:49:11;0.22;;;0.22;;
81908;SDS011;71372;43.514;1.512;2023-12-22T08:51:37;0.80;;;0.40;;
81908;SDS011;71372;43.514;1.512;2023-12-22T08:54:03;0.40;;;0.40;;
81908;SDS011;71372;43.514;1.512;2023-12-22T08:56:32;1.35;;;0.35;;
81908;SDS011;71372;43.514;1.512;2023-12-22T08:58:58;1.30;;;0.40;;
81908;SDS011;71372;43.514;1.512;2023-12-22T09:01:26;0.88;;;0.43;;
81908;SDS011;71372;43.514;1.512;2023-12-22T09:03:52;0.43;;;0.30;;
81908;SDS011;71372;43.514;1.512;2023-12-22T09:06:19;1.55;;;0.40;;
81908;SDS011;71372;43.514;1.512;2023-12-22T09:08:46;2.70;;;0.50;;
81908;SDS011;71372;43.514;1.512;2023-12-22T09:11:13;0.45;;;0.20;;
81908;SDS011;71372;43.514;1.512;2023-12-22T09:13:42;1.10;;;0.30;;
81908;SDS011;71372;43.514;1.512;2023-12-22T09:16:09;0.90;;;0.30;;
81908;SDS011;71372;43.514;1.512;2023-12-22T09:18:35;0.40;;;0.40;;
81908;SDS011;71372;43.514;1.512;2023-12-22T09:21:02;1.95;;;0.38;;
81908;SDS011;71372;43.514;1.512;2023-12-22T09:23:28;1.23;;;0.38;;
81908;SDS011;71372;43.514;1.512;2023-12-22T09:25:54;0.22;;;0.20;;
81908;SDS011;71372;43.514;1.512;2023-12-22T09:28:21;0.40;;;0.30;;
81908;SDS011;71372;43.514;1.512;2023-12-22T09:30:47;0.60;;;0.30;;
81908;SDS011;71372;43.514;1.512;2023-12-22T09:33:12;0.82;;;0.57;;
81908;SDS011;71372;43.514;1.512;2023-12-22T09:35:38;0.68;;;0.40;;
81908;SDS011;71372;43.514;1.512;2023-12-22T09:38:07;0.52;;;0.10;;
81908;SDS011;71372;43.514;1.512;2023-12-22T09:40:38;0.73;;;0.35;;
81908;SDS011;71372;43.514;1.512;2023-12-22T09:43:06;0.73;;;0.40;;
81908;SDS011;71372;43.514;1.512;2023-12-22T09:45:33;0.57;;;0.40;;
81908;SDS011;71372;43.514;1.512;2023-12-22T09:47:59;0.28;;;0.20;;
81908;SDS011;71372;43.514;1.512;2023-12-22T09:50:27;0.88;;;0.30;;
81908;SDS011;71372;43.514;1.512;2023-12-22T09:52:53;2.10;;;0.40;;
81908;SDS011;71372;43.514;1.512;2023-12-22T09:55:22;0.73;;;0.40;;
81908;SDS011;71372;43.514;1.512;2023-12-22T09:57:49;1.50;;;0.52;;
81908;SDS011;71372;43.514;1.512;2023-12-22T10:00:16;1.00;;;0.50;;
81908;SDS011;71372;43.514;1.512;2023-12-22T10:02:43;1.27;;;0.40;;
81908;SDS011;71372;43.514;1.512;2023-12-22T10:05:13;0.60;;;0.40;;
81908;SDS011;71372;43.514;1.512;2023-12-22T10:07:44;0.75;;;0.30;;
81908;SDS011;71372;43.514;1.512;2023-12-22T10:10:11;1.27;;;0.50;;
81908;SDS011;71372;43.514;1.512;2023-12-22T10:12:38;0.77;;;0.30;;
81908;SDS011;71372;43.514;1.512;2023-12-22T10:15:07;0.65;;;0.22;;
81908;SDS011;71372;43.514;1.512;2023-12-22T10:17:35;0.63;;;0.40;;
81908;SDS011;71372;43.514;1.512;2023-12-22T10:20:02;0.73;;;0.60;;
81908;SDS011;71372;43.514;1.512;2023-12-22T10:22:29;0.50;;;0.30;;
81908;SDS011;71372;43.514;1.512;2023-12-22T10:24:55;0.40;;;0.30;;
81908;SDS011;71372;43.514;1.512;2023-12-22T10:27:21;0.20;;;0.20;;
81908;SDS011;71372;43.514;1.512;2023-12-22T10:29:50;0.35;;;0.30;;
81908;SDS011;71372;43.514;1.512;2023-12-22T10:32:19;0.57;;;0.40;;
81908;SDS011;71372;43.514;1.512;2023-12-22T10:34:47;1.48;;;0.40;;
81908;SDS011;71372;43.514;1.512;2023-12-22T10:37:13;0.50;;;0.43;;
81908;SDS011;71372;43.514;1.512;2023-12-22T10:39:39;1.20;;;0.40;;
81908;SDS011;71372;43.514;1.512;2023-12-22T10:42:05;1.83;;;0.60;;
81908;SDS011;71372;43.514;1.512;2023-12-22T10:44:31;1.05;;;0.30;;
81908;SDS011;71372;43.514;1.512;2023-12-22T10:46:57;0.70;;;0.45;;
81908;SDS011;71372;43.514;1.512;2023-12-22T10:49:24;0.50;;;0.40;;
81908;SDS011;71372;43.514;1.512;2023-12-22T10:51:51;0.60;;;0.40;;
81908;SDS011;71372;43.514;1.512;2023-12-22T10:54:17;1.27;;;0.40;;
81908;SDS011;71372;43.514;1.512;2023-12-22T10:56:44;0.32;;;0.32;;
81908;SDS011;71372;43.514;1.512;2023-12-22T10:59:10;0.80;;;0.45;;
81908;SDS011;71372;43.514;1.512;2023-12-22T11:01:37;0.60;;;0.43;;
81908;SDS011;71372;43.514;1.512;2023-12-22T11:04:07;1.73;;;0.88;;
81908;SDS011;71372;43.514;1.512;2023-12-22T11:09:06;4.45;;;1.10;;
81908;SDS011;71372;43.514;1.512;2023-12-22T11:11:34;0.70;;;0.43;;
81908;SDS011;71372;43.514;1.512;2023-12-22T11:14:05;0.75;;;0.35;;
81908;SDS011;71372;43.514;1.512;2023-12-22T11:16:32;0.88;;;0.45;;
81908;SDS011;71372;43.514;1.512;2023-12-22T11:18:59;0.55;;;0.30;;
81908;SDS011;71372;43.514;1.512;2023-12-22T11:21:29;0.60;;;0.30;;
81908;SDS011;71372;43.514;1.512;2023-12-22T11:23:56;1.38;;;0.40;;
81908;SDS011;71372;43.514;1.512;2023-12-22T11:26:23;1.02;;;0.35;;
81908;SDS011;71372;43.514;1.512;2023-12-22T11:28:50;0.63;;;0.40;;
81908;SDS011;71372;43.514;1.512;2023-12-22T11:31:18;0.50;;;0.40;;
81908;SDS011;71372;43.514;1.512;2023-12-22T11:33:45;2.20;;;1.30;;
81908;SDS011;71372;43.514;1.512;2023-12-22T11:36:12;1.45;;;0.80;;
81908;SDS011;71372;43.514;1.512;2023-12-22T11:38:42;2.42;;;1.30;;
81908;SDS011;71372;43.514;1.512;2023-12-22T11:41:10;1.90;;;0.60;;
81908;SDS011;71372;43.514;1.512;2023-12-22T11:43:41;1.00;;;0.60;;
81908;SDS011;71372;43.514;1.512;2023-12-22T11:46:08;1.00;;;0.57;;
81908;SDS011;71372;43.514;1.512;2023-12-22T11:48:34;1.75;;;0.52;;
81908;SDS011;71372;43.514;1.512;2023-12-22T11:51:01;1.20;;;0.50;;
81908;SDS011;71372;43.514;1.512;2023-12-22T11:53:30;1.83;;;1.00;;
81908;SDS011;71372;43.514;1.512;2023-12-22T11:56:04;0.75;;;0.40;;
81908;SDS011;71372;43.514;1.512;2023-12-22T11:58:34;1.25;;;0.73;;
81908;SDS011;71372;43.514;1.512;2023-12-22T12:01:11;0.82;;;0.63;;
81908;SDS011;71372;43.514;1.512;2023-12-22T12:06:30;1.50;;;0.80;;
81908;SDS011;71372;43.514;1.512;2023-12-22T12:08:58;1.10;;;0.38;;
81908;SDS011;71372;43.514;1.512;2023-12-22T12:12:08;1.10;;;0.40;;
81908;SDS011;71372;43.514;1.512;2023-12-22T12:14:37;1.30;;;0.80;;
81908;SDS011;71372;43.514;1.512;2023-12-22T12:17:07;1.30;;;0.80;;
81908;SDS011;71372;43.514;1.512;2023-12-22T12:19:34;1.48;;;0.55;;
81908;SDS011;71372;43.514;1.512;2023-12-22T12:22:02;1.10;;;0.65;;
81908;SDS011;71372;43.514;1.512;2023-12-22T12:24:29;0.52;;;0.32;;
81908;SDS011;71372;43.514;1.512;2023-12-22T12:26:55;1.17;;;0.47;;
81908;SDS011;71372;43.514;1.512;2023-12-22T12:29:21;0.80;;;0.50;;
81908;SDS011;71372;43.514;1.512;2023-12-22T12:31:47;1.58;;;0.70;;
81908;SDS011;71372;43.514;1.512;2023-12-22T12:34:14;0.55;;;0.38;;
81908;SDS011;71372;43.514;1.512;2023-12-22T12:36:42;0.60;;;0.40;;
81908;SDS011;71372;43.514;1.512;2023-12-22T12:39:08;1.10;;;0.60;;
81908;SDS011;71372;43.514;1.512;2023-12-22T12:41:36;0.70;;;0.40;;
81908;SDS011;71372;43.514;1.512;2023-12-22T12:44:06;1.40;;;0.40;;
81908;SDS011;71372;43.514;1.512;2023-12-22T12:46:33;1.58;;;0.60;;
81908;SDS011;71372;43.514;1.512;2023-12-22T12:49:06;1.65;;;0.30;;
81908;SDS011;71372;43.514;1.512;2023-12-22T12:51:39;0.50;;;0.30;;
81908;SDS011;71372;43.514;1.512;2023-12-22T12:54:07;1.23;;;0.70;;
81908;SDS011;71372;43.514;1.512;2023-12-22T12:56:41;0.95;;;0.30;;
81908;SDS011;71372;43.514;1.512;2023-12-22T12:59:09;0.65;;;0.32;;
81908;SDS011;71372;43.514;1.512;2023-12-22T13:01:43;1.10;;;0.60;;
81908;SDS011;71372;43.514;1.512;2023-12-22T13:04:10;0.47;;;0.22;;
81908;SDS011;71372;43.514;1.512;2023-12-22T13:06:47;0.65;;;0.38;;
81908;SDS011;71372;43.514;1.512;2023-12-22T13:09:14;0.63;;;0.40;;
81908;SDS011;71372;43.514;1.512;2023-12-22T13:11:41;1.48;;;0.73;;
81908;SDS011;71372;43.514;1.512;2023-12-22T13:14:08;1.73;;;0.43;;
81908;SDS011;71372;43.514;1.512;2023-12-22T13:16:35;2.03;;;1.00;;
81908;SDS011;71372;43.514;1.512;2023-12-22T13:19:02;1.40;;;0.70;;
81908;SDS011;71372;43.514;1.512;2023-12-22T13:21:28;1.05;;;0.68;;
81908;SDS011;71372;43.514;1.512;2023-12-22T13:24:10;0.98;;;0.32;;
81908;SDS011;71372;43.514;1.512;2023-12-22T13:26:43;1.10;;;0.50;;
81908;SDS011;71372;43.514;1.512;2023-12-22T13:29:10;1.42;;;0.60;;
81908;SDS011;71372;43.514;1.512;2023-12-22T13:31:38;1.88;;;1.10;;
81908;SDS011;71372;43.514;1.512;2023-12-22T13:34:08;1.42;;;1.00;;
81908;SDS011;71372;43.514;1.512;2023-12-22T13:36:35;3.15;;;0.90;;
81908;SDS011;71372;43.514;1.512;2023-12-22T13:39:04;1.27;;;1.00;;
81908;SDS011;71372;43.514;1.512;2023-12-22T13:41:32;1.23;;;0.70;;
81908;SDS011;71372;43.514;1.512;2023-12-22T13:44:02;3.33;;;1.42;;
81908;SDS011;71372;43.514;1.512;2023-12-22T13:46:29;3.08;;;1.60;;
81908;SDS011;71372;43.514;1.512;2023-12-22T13:48:56;1.17;;;0.57;;
81908;SDS011;71372;43.514;1.512;2023-12-22T13:51:23;2.80;;;0.63;;
81908;SDS011;71372;43.514;1.512;2023-12-22T13:53:49;4.38;;;0.52;;
81908;SDS011;71372;43.514;1.512;2023-12-22T13:56:15;0.52;;;0.40;;
81908;SDS011;71372;43.514;1.512;2023-12-22T13:58:47;0.52;;;0.43;;
81908;SDS011;71372;43.514;1.512;2023-12-22T14:01:14;1.15;;;0.40;;
81908;SDS011;71372;43.514;1.512;2023-12-22T14:03:44;1.95;;;1.00;;
81908;SDS011;71372;43.514;1.512;2023-12-22T14:06:11;1.10;;;0.45;;
81908;SDS011;71372;43.514;1.512;2023-12-22T14:08:40;2.65;;;1.40;;
81908;SDS011;71372;43.514;1.512;2023-12-22T14:11:07;1.67;;;0.60;;
81908;SDS011;71372;43.514;1.512;2023-12-22T14:13:33;3.17;;;1.48;;
81908;SDS011;71372;43.514;1.512;2023-12-22T14:16:05;2.30;;;1.02;;
81908;SDS011;71372;43.514;1.512;2023-12-22T14:18:31;5.38;;;1.20;;
81908;SDS011;71372;43.514;1.512;2023-12-22T14:20:57;2.20;;;0.77;;
81908;SDS011;71372;43.514;1.512;2023-12-22T14:23:24;3.00;;;0.80;;
81908;SDS011;71372;43.514;1.512;2023-12-22T14:25:50;1.85;;;0.60;;
81908;SDS011;71372;43.514;1.512;2023-12-22T14:28:16;1.27;;;0.60;;
81908;SDS011;71372;43.514;1.512;2023-12-22T14:30:42;1.67;;;0.55;;
81908;SDS011;71372;43.514;1.512;2023-12-22T14:33:08;1.02;;;0.50;;
81908;SDS011;71372;43.514;1.512;2023-12-22T14:35:35;1.70;;;0.80;;
81908;SDS011;71372;43.514;1.512;2023-12-22T14:38:02;1.60;;;0.70;;
81908;SDS011;71372;43.514;1.512;2023-12-22T14:40:28;3.40;;;1.45;;
81908;SDS011;71372;43.514;1.512;2023-12-22T14:42:54;4.32;;;1.20;;
81908;SDS011;71372;43.514;1.512;2023-12-22T14:45:20;1.92;;;1.00;;
81908;SDS011;71372;43.514;1.512;2023-12-22T14:47:46;2.10;;;1.10;;
81908;SDS011;71372;43.514;1.512;2023-12-22T14:50:13;2.55;;;0.63;;
81908;SDS011;71372;43.514;1.512;2023-12-22T14:52:39;1.77;;;0.60;;
81908;SDS011;71372;43.514;1.512;2023-12-22T14:55:05;1.50;;;0.70;;
81908;SDS011;71372;43.514;1.512;2023-12-22T14:57:31;1.42;;;0.68;;
81908;SDS011;71372;43.514;1.512;2023-12-22T14:59:59;1.92;;;0.50;;
81908;SDS011;71372;43.514;1.512;2023-12-22T15:02:25;1.63;;;0.57;;